createdAt,value
2022-09-15T00:01:18.418Z,4.55
2022-09-15T00:03:46.357Z,4.75
2022-09-15T00:06:14.451Z,4.32
2022-09-15T00:08:41.661Z,4.47
2022-09-15T00:11:20.460Z,4.57
2022-09-15T00:13:48.740Z,4.43
2022-09-15T00:16:18.271Z,4.38
2022-09-15T00:18:46.892Z,4.68
2022-09-15T00:21:18.164Z,4.63
2022-09-15T00:23:47.113Z,4.93
2022-09-15T00:26:20.098Z,4.63
2022-09-15T00:28:48.395Z,4.60
2022-09-15T00:31:20.648Z,5.00
2022-09-15T00:33:53.872Z,4.72
2022-09-15T00:36:24.055Z,5.30
2022-09-15T00:38:52.296Z,5.43
2022-09-15T00:41:23.396Z,4.63
2022-09-15T00:44:02.477Z,4.75
2022-09-15T00:46:36.923Z,4.53
2022-09-15T00:49:28.924Z,4.90
2022-09-15T00:52:12.330Z,4.80
2022-09-15T00:55:18.367Z,5.20
2022-09-15T00:57:57.271Z,4.77
2022-09-15T01:00:27.481Z,4.70
2022-09-15T01:02:56.447Z,4.63
2022-09-15T01:05:39.329Z,4.63
2022-09-15T01:08:22.299Z,4.97
2022-09-15T01:10:48.890Z,4.85
2022-09-15T01:13:16.527Z,4.88
2022-09-15T01:16:16.811Z,4.43
2022-09-15T01:19:12.854Z,4.78
2022-09-15T01:22:08.514Z,5.65
2022-09-15T01:25:03.293Z,5.07
2022-09-15T01:27:59.065Z,5.03
2022-09-15T01:30:33.605Z,5.40
2022-09-15T01:33:24.854Z,4.68
2022-09-15T01:36:21.657Z,4.45
2022-09-15T01:39:15.756Z,4.80
2022-09-15T01:42:06.346Z,4.82
2022-09-15T01:44:46.365Z,5.03
2022-09-15T01:47:19.849Z,4.82
2022-09-15T01:50:06.272Z,4.50
2022-09-15T01:52:34.433Z,4.93
2022-09-15T01:55:07.571Z,5.38
2022-09-15T01:57:35.590Z,4.78
2022-09-15T02:00:07.043Z,5.00
2022-09-15T02:02:50.762Z,4.60
2022-09-15T02:05:53.313Z,4.55
2022-09-15T02:08:51.473Z,4.97
2022-09-15T02:11:23.822Z,4.53
2022-09-15T02:14:32.184Z,4.88
2022-09-15T02:17:00.200Z,4.93
2022-09-15T02:19:40.891Z,5.60
2022-09-15T02:22:29.540Z,4.30
2022-09-15T02:25:17.994Z,4.32
2022-09-15T02:27:52.757Z,4.82
2022-09-15T02:30:21.747Z,3.97
2022-09-15T02:32:56.727Z,4.82
2022-09-15T02:35:25.922Z,4.53
2022-09-15T02:37:53.283Z,4.55
2022-09-15T02:40:22.529Z,4.97
2022-09-15T02:42:55.800Z,4.82
2022-09-15T02:45:25.403Z,5.43
2022-09-15T02:47:53.747Z,4.70
2022-09-15T02:50:21.761Z,5.50
2022-09-15T02:52:49.760Z,4.80
2022-09-15T02:55:19.551Z,5.55
2022-09-15T02:57:55.749Z,5.13
2022-09-15T03:00:26.104Z,5.15
2022-09-15T03:02:55.001Z,5.78
2022-09-15T03:05:28.673Z,4.80
2022-09-15T03:07:57.132Z,5.00
2022-09-15T03:10:25.043Z,4.90
2022-09-15T03:12:54.597Z,5.35
2022-09-15T03:15:24.366Z,5.72
2022-09-15T03:17:53.068Z,5.47
2022-09-15T03:20:22.809Z,5.63
2022-09-15T03:22:50.077Z,6.00
2022-09-15T03:25:20.736Z,6.30
2022-09-15T03:27:48.654Z,6.00
2022-09-15T03:30:16.698Z,5.60
2022-09-15T03:32:44.525Z,5.65
2022-09-15T03:35:11.200Z,5.93
2022-09-15T03:37:39.392Z,6.10
2022-09-15T03:40:08.205Z,5.75
2022-09-15T03:42:36.006Z,5.28
2022-09-15T03:45:06.857Z,5.57
2022-09-15T03:47:34.475Z,5.82
2022-09-15T03:50:01.127Z,5.95
2022-09-15T03:52:31.203Z,5.43
2022-09-15T03:54:57.820Z,6.50
2022-09-15T03:57:25.489Z,5.80
2022-09-15T03:59:53.386Z,6.00
2022-09-15T04:02:21.234Z,6.20
2022-09-15T04:04:49.103Z,6.32
2022-09-15T04:07:15.741Z,6.95
2022-09-15T04:09:43.539Z,6.20
2022-09-15T04:12:11.166Z,6.10
2022-09-15T04:14:39.411Z,6.88
2022-09-15T04:17:07.403Z,6.32
2022-09-15T04:19:35.007Z,6.38
2022-09-15T04:22:02.829Z,6.05
2022-09-15T04:24:30.820Z,6.45
2022-09-15T04:26:58.491Z,6.68
2022-09-15T04:29:26.129Z,6.18
2022-09-15T04:31:56.751Z,6.43
2022-09-15T04:34:24.772Z,6.57
2022-09-15T04:36:51.426Z,5.55
2022-09-15T04:39:18.043Z,6.20
2022-09-15T04:41:44.698Z,6.35
2022-09-15T04:44:12.698Z,6.07
2022-09-15T04:46:39.337Z,5.90
2022-09-15T04:49:07.574Z,6.07
2022-09-15T04:51:35.333Z,6.07
2022-09-15T04:54:03.379Z,6.85
2022-09-15T04:56:31.131Z,6.53
2022-09-15T04:59:04.133Z,7.00
2022-09-15T05:01:34.605Z,6.60
2022-09-15T05:04:03.841Z,6.55
2022-09-15T05:06:32.659Z,5.88
2022-09-15T05:08:59.553Z,6.30
2022-09-15T05:11:26.807Z,6.45
2022-09-15T05:13:54.862Z,6.38
2022-09-15T05:16:28.642Z,6.75
2022-09-15T05:19:01.196Z,6.95
2022-09-15T05:21:29.483Z,7.05
2022-09-15T05:23:56.649Z,7.25
2022-09-15T05:26:27.441Z,7.05
2022-09-15T05:28:56.189Z,7.03
2022-09-15T05:31:28.012Z,7.03
2022-09-15T05:33:55.896Z,6.90
2022-09-15T05:36:23.851Z,6.93
2022-09-15T05:38:51.135Z,6.47
2022-09-15T05:41:18.919Z,7.05
2022-09-15T05:43:48.184Z,6.85
2022-09-15T05:46:18.116Z,6.95
2022-09-15T05:48:46.551Z,6.57
2022-09-15T05:51:14.188Z,6.63
2022-09-15T05:53:42.238Z,6.95
2022-09-15T05:56:15.200Z,6.65
2022-09-15T05:58:46.284Z,6.28
2022-09-15T06:01:21.626Z,6.13
2022-09-15T06:03:50.073Z,6.05
2022-09-15T06:06:16.905Z,6.20
2022-09-15T06:08:48.345Z,5.65
2022-09-15T06:11:19.309Z,5.30
2022-09-15T06:13:47.845Z,5.60
2022-09-15T06:16:21.758Z,5.15
2022-09-15T06:18:51.441Z,4.65
2022-09-15T06:21:22.386Z,5.07
2022-09-15T06:23:54.694Z,4.75
2022-09-15T06:26:23.404Z,4.38
2022-09-15T06:29:04.976Z,4.80
2022-09-15T06:31:34.057Z,4.70
2022-09-15T06:34:01.141Z,4.80
2022-09-15T06:36:30.767Z,4.40
2022-09-15T06:38:59.254Z,3.95
2022-09-15T06:41:27.551Z,4.57
2022-09-15T06:43:56.011Z,4.63
2022-09-15T06:46:25.605Z,5.20
2022-09-15T06:48:54.843Z,4.60
2022-09-15T06:51:25.333Z,4.63
2022-09-15T06:53:54.012Z,4.63
2022-09-15T06:56:23.590Z,4.57
2022-09-15T06:59:00.186Z,4.30
2022-09-15T07:01:31.450Z,4.70
2022-09-15T07:04:00.630Z,4.72
2022-09-15T07:06:32.452Z,4.60
2022-09-15T07:08:59.410Z,4.35
2022-09-15T07:11:27.302Z,4.63
2022-09-15T07:13:55.489Z,4.35
2022-09-15T07:16:23.981Z,5.20
2022-09-15T07:18:51.024Z,4.60
2022-09-15T07:21:20.456Z,4.75
2022-09-15T07:23:49.536Z,4.70
2022-09-15T07:26:24.973Z,4.53
2022-09-15T07:29:04.619Z,4.68
2022-09-15T07:31:33.557Z,4.40
2022-09-15T07:34:02.628Z,5.20
2022-09-15T07:36:32.779Z,4.75
2022-09-15T07:39:00.537Z,4.40
2022-09-15T07:41:48.256Z,5.28
2022-09-15T07:44:16.161Z,4.38
2022-09-15T07:46:44.324Z,5.20
2022-09-15T07:49:12.019Z,4.88
2022-09-15T07:51:40.969Z,4.93
2022-09-15T07:54:12.017Z,4.47
2022-09-15T07:56:39.004Z,4.32
2022-09-15T07:59:07.197Z,4.57
2022-09-15T08:01:34.064Z,4.55
2022-09-15T08:04:00.721Z,4.45
2022-09-15T08:06:28.914Z,4.88
2022-09-15T08:09:00.794Z,4.55
2022-09-15T08:11:29.670Z,4.40
2022-09-15T08:14:01.014Z,3.95
2022-09-15T08:16:27.684Z,4.00
2022-09-15T08:18:55.616Z,4.05
2022-09-15T08:21:24.103Z,3.92
2022-09-15T08:23:53.792Z,4.32
2022-09-15T08:26:22.739Z,3.80
2022-09-15T08:28:50.605Z,3.97
2022-09-15T08:31:17.854Z,4.20
2022-09-15T08:33:55.505Z,3.78
2022-09-15T08:36:24.140Z,3.67
2022-09-15T08:38:52.170Z,3.72
2022-09-15T08:41:59.988Z,3.92
2022-09-15T08:44:52.408Z,3.67
2022-09-15T08:47:44.958Z,3.45
2022-09-15T08:50:23.443Z,3.63
2022-09-15T08:53:25.699Z,3.70
2022-09-15T08:56:11.139Z,3.40
2022-09-15T08:58:59.647Z,3.53
2022-09-15T09:02:14.986Z,3.08
2022-09-15T09:05:20.275Z,2.75
2022-09-15T09:08:32.177Z,2.53
2022-09-15T09:11:19.530Z,2.50
2022-09-15T09:14:07.443Z,2.70
2022-09-15T09:17:01.173Z,2.22
2022-09-15T09:19:53.683Z,2.90
2022-09-15T09:22:25.965Z,2.47
2022-09-15T09:24:56.470Z,2.58
2022-09-15T09:27:34.302Z,3.25
2022-09-15T09:30:17.869Z,2.72
2022-09-15T09:32:59.961Z,2.45
2022-09-15T09:35:49.508Z,2.40
2022-09-15T09:38:24.130Z,2.22
2022-09-15T09:40:52.800Z,2.72
2022-09-15T09:43:19.652Z,2.05
2022-09-15T09:45:47.564Z,2.03
2022-09-15T09:48:24.758Z,2.60
2022-09-15T09:50:52.610Z,2.42
2022-09-15T09:53:33.222Z,2.22
2022-09-15T09:56:11.847Z,2.30
2022-09-15T09:58:40.144Z,2.30
2022-09-15T10:01:19.628Z,1.90
2022-09-15T10:03:47.554Z,2.20
2022-09-15T10:06:22.006Z,2.60
2022-09-15T10:09:00.718Z,2.30
2022-09-15T10:11:48.318Z,2.53
2022-09-15T10:14:43.025Z,1.90
2022-09-15T10:17:15.407Z,2.17
2022-09-15T10:19:51.088Z,2.17
2022-09-15T10:22:42.859Z,2.40
2022-09-15T10:25:49.674Z,2.03
2022-09-15T10:28:22.905Z,1.73
2022-09-15T10:31:11.327Z,1.80
2022-09-15T10:33:44.324Z,1.80
2022-09-15T10:36:29.967Z,2.20
2022-09-15T10:39:54.214Z,2.15
2022-09-15T10:42:44.934Z,1.67
2022-09-15T10:45:40.071Z,2.15
2022-09-15T10:48:42.513Z,1.80
2022-09-15T10:51:30.894Z,2.00
2022-09-15T10:54:27.787Z,1.55
2022-09-15T10:57:17.671Z,1.73
2022-09-15T11:00:05.013Z,1.67
2022-09-15T11:02:51.526Z,2.03
2022-09-15T11:05:32.599Z,1.70
2022-09-15T11:08:17.167Z,1.27
2022-09-15T11:11:03.795Z,1.95
2022-09-15T11:13:36.784Z,1.63
2022-09-15T11:16:25.410Z,1.98
2022-09-15T11:19:01.581Z,1.70
2022-09-15T11:21:47.163Z,1.80
2022-09-15T11:24:45.520Z,1.90
2022-09-15T11:27:56.139Z,1.75
2022-09-15T11:30:31.279Z,2.30
2022-09-15T11:33:28.860Z,1.98
2022-09-15T11:36:30.106Z,1.95
2022-09-15T11:39:25.844Z,1.67
2022-09-15T11:42:05.662Z,2.03
2022-09-15T11:44:37.981Z,1.67
2022-09-15T11:47:04.605Z,1.77
2022-09-15T11:49:53.662Z,1.70
2022-09-15T11:52:49.406Z,2.03
2022-09-15T11:55:42.057Z,1.90
2022-09-15T11:58:27.550Z,1.48
2022-09-15T12:01:10.680Z,1.77
2022-09-15T12:03:55.788Z,1.77
2022-09-15T12:06:26.759Z,1.75
2022-09-15T12:09:03.950Z,2.08
2022-09-15T12:11:36.301Z,1.98
2022-09-15T12:14:07.628Z,2.20
2022-09-15T12:16:35.035Z,2.10
2022-09-15T12:19:23.814Z,2.00
2022-09-15T12:22:28.527Z,2.53
2022-09-15T12:25:10.276Z,2.00
2022-09-15T12:27:38.284Z,2.00
2022-09-15T12:30:26.781Z,1.95
2022-09-15T12:32:56.814Z,1.77
2022-09-15T12:35:30.590Z,1.92
2022-09-15T12:37:58.893Z,1.98
2022-09-15T12:40:36.219Z,2.10
2022-09-15T12:43:15.199Z,2.20
2022-09-15T12:45:54.338Z,2.00
2022-09-15T12:48:32.175Z,1.70
2022-09-15T12:51:04.066Z,1.83
2022-09-15T12:54:02.576Z,2.00
2022-09-15T12:56:36.761Z,2.10
2022-09-15T12:59:09.004Z,2.33
2022-09-15T13:01:49.479Z,2.00
2022-09-15T13:04:50.902Z,2.00
2022-09-15T13:07:17.465Z,2.40
2022-09-15T13:10:05.990Z,1.88
2022-09-15T13:12:38.604Z,1.80
2022-09-15T13:15:13.314Z,2.20
2022-09-15T13:17:45.983Z,1.60
2022-09-15T13:20:23.311Z,1.58
2022-09-15T13:22:53.966Z,1.70
2022-09-15T13:25:27.047Z,2.25
2022-09-15T13:27:59.161Z,2.08
2022-09-15T13:30:49.146Z,1.50
2022-09-15T13:33:18.793Z,1.92
2022-09-15T13:35:51.306Z,1.60
2022-09-15T13:38:59.909Z,1.70
2022-09-15T13:41:48.134Z,1.60
2022-09-15T13:44:32.822Z,1.92
2022-09-15T13:47:41.769Z,1.70
2022-09-15T13:50:18.198Z,1.60
2022-09-15T13:53:25.475Z,1.63
2022-09-15T13:55:53.866Z,1.48
2022-09-15T14:01:14.225Z,1.60
2022-09-15T14:03:45.910Z,1.50
2022-09-15T14:06:20.631Z,1.40
2022-09-15T14:08:52.410Z,1.42
2022-09-15T14:11:30.285Z,1.63
2022-09-15T14:13:59.014Z,1.60
2022-09-15T14:16:38.487Z,1.35
2022-09-15T14:19:36.875Z,1.67
2022-09-15T14:22:49.004Z,1.40
2022-09-15T14:25:17.771Z,1.52
2022-09-15T14:27:47.230Z,1.67
2022-09-15T14:30:30.820Z,1.38
2022-09-15T14:33:01.411Z,1.23
2022-09-15T14:35:35.372Z,1.33
2022-09-15T14:38:03.816Z,1.52
2022-09-15T14:40:38.246Z,1.27
2022-09-15T14:43:33.584Z,1.33
2022-09-15T14:46:17.277Z,2.05
2022-09-15T14:48:45.199Z,1.70
2022-09-15T14:51:25.607Z,1.75
2022-09-15T14:53:57.254Z,1.50
2022-09-15T14:56:28.846Z,1.38
2022-09-15T14:59:00.731Z,1.50
2022-09-15T15:02:02.549Z,1.67
2022-09-15T15:04:39.993Z,1.42
2022-09-15T15:07:28.851Z,1.38
2022-09-15T15:10:04.597Z,1.55
2022-09-15T15:14:59.706Z,1.63
2022-09-15T15:17:47.919Z,1.40
2022-09-15T15:20:22.377Z,0.90
2022-09-15T15:23:14.496Z,1.15
2022-09-15T15:25:41.805Z,1.10
2022-09-15T15:28:34.429Z,1.17
2022-09-15T15:31:28.840Z,1.00
2022-09-15T15:33:59.013Z,1.05
2022-09-15T15:36:28.796Z,1.42
2022-09-15T15:39:06.478Z,1.10
2022-09-15T15:41:43.196Z,1.30
2022-09-15T15:44:25.548Z,1.55
2022-09-15T15:46:59.050Z,1.40
2022-09-15T15:49:28.789Z,1.50
2022-09-15T15:51:59.134Z,1.52
2022-09-15T15:54:26.215Z,1.42
2022-09-15T15:56:54.645Z,1.10
2022-09-15T15:59:21.408Z,1.30
2022-09-15T16:01:52.035Z,1.27
2022-09-15T16:04:20.030Z,1.73
2022-09-15T16:06:48.003Z,1.20
2022-09-15T16:09:17.650Z,1.55
2022-09-15T16:11:45.611Z,1.33
2022-09-15T16:14:13.104Z,1.52
2022-09-15T16:16:41.058Z,1.10
2022-09-15T16:19:09.103Z,1.33
2022-09-15T16:21:40.082Z,1.38
2022-09-15T16:24:13.611Z,1.88
2022-09-15T16:26:42.612Z,1.85
2022-09-15T16:29:11.074Z,1.40
2022-09-15T16:31:39.328Z,1.35
2022-09-15T16:34:06.133Z,1.48
2022-09-15T16:36:37.062Z,1.30
2022-09-15T16:39:07.452Z,1.40
2022-09-15T16:41:39.287Z,2.00
2022-09-15T16:44:14.493Z,1.45
2022-09-15T16:46:42.357Z,1.27
2022-09-15T16:49:09.258Z,1.48
2022-09-15T16:51:37.637Z,1.60
2022-09-15T16:54:17.181Z,1.67
2022-09-15T16:56:45.280Z,1.83
2022-09-15T16:59:12.569Z,1.83
2022-09-15T17:01:39.298Z,1.60
2022-09-15T17:04:14.654Z,1.30
2022-09-15T17:06:43.090Z,1.50
2022-09-15T17:09:11.188Z,1.80
2022-09-15T17:11:37.942Z,1.50
2022-09-15T17:14:04.734Z,1.70
2022-09-15T17:16:32.349Z,1.33
2022-09-15T17:19:00.484Z,1.75
2022-09-15T17:21:28.403Z,1.63
2022-09-15T17:23:56.303Z,1.65
2022-09-15T17:26:27.616Z,1.55
2022-09-15T17:28:58.675Z,1.35
2022-09-15T17:31:30.118Z,1.40
2022-09-15T17:33:58.034Z,1.95
2022-09-15T17:36:26.094Z,1.83
2022-09-15T17:38:54.288Z,1.75
2022-09-15T17:41:22.093Z,1.55
2022-09-15T17:43:50.979Z,1.27
2022-09-15T17:46:18.851Z,1.15
2022-09-15T17:48:46.090Z,1.48
2022-09-15T17:51:16.589Z,1.30
2022-09-15T17:53:44.714Z,1.40
2022-09-15T17:56:12.382Z,1.55
2022-09-15T17:58:39.039Z,1.45
2022-09-15T18:01:05.817Z,1.30
2022-09-15T18:03:37.245Z,1.45
2022-09-15T18:06:07.919Z,1.67
2022-09-15T18:08:36.501Z,1.48
2022-09-15T18:11:06.133Z,1.00
2022-09-15T18:13:33.976Z,1.20
2022-09-15T18:16:06.864Z,1.35
2022-09-15T18:18:35.462Z,1.10
2022-09-15T18:21:09.167Z,1.30
2022-09-15T18:23:37.475Z,1.08
2022-09-15T18:26:05.523Z,0.90
2022-09-15T18:28:33.461Z,1.38
2022-09-15T18:31:01.324Z,1.30
2022-09-15T18:33:30.501Z,1.25
2022-09-15T18:36:00.868Z,1.08
2022-09-15T18:38:35.666Z,1.35
2022-09-15T18:41:09.926Z,1.10
2022-09-15T18:43:39.391Z,1.25
2022-09-15T18:46:07.718Z,1.55
2022-09-15T18:48:35.764Z,1.52
2022-09-15T18:51:08.197Z,1.17
2022-09-15T18:53:39.098Z,1.40
2022-09-15T18:56:12.310Z,1.50
2022-09-15T18:58:40.522Z,2.00
2022-09-15T19:01:08.818Z,1.45
2022-09-15T19:03:36.766Z,1.85
2022-09-15T19:06:06.714Z,1.55
2022-09-15T19:08:36.367Z,1.52
2022-09-15T19:11:15.257Z,1.60
2022-09-15T19:13:43.103Z,2.17
2022-09-15T19:16:12.832Z,1.85
2022-09-15T19:18:43.130Z,1.70
2022-09-15T19:21:12.839Z,1.63
2022-09-15T19:23:40.746Z,1.70
2022-09-15T19:26:14.036Z,1.35
2022-09-15T19:28:45.164Z,1.80
2022-09-15T19:31:13.169Z,1.65
2022-09-15T19:33:40.941Z,1.83
2022-09-15T19:36:27.532Z,1.70
2022-09-15T19:38:58.653Z,2.13
2022-09-15T19:41:26.869Z,1.98
2022-09-15T19:43:54.729Z,1.83
2022-09-15T19:46:25.097Z,1.55
2022-09-15T19:48:53.748Z,1.70
2022-09-15T19:51:22.101Z,1.65
2022-09-15T19:53:53.290Z,1.73
2022-09-15T19:56:22.792Z,1.40
2022-09-15T19:59:03.451Z,1.70
2022-09-15T20:01:32.132Z,1.52
2022-09-15T20:04:01.699Z,1.90
2022-09-15T20:06:32.314Z,1.40
2022-09-15T20:09:00.929Z,1.50
2022-09-15T20:11:29.686Z,1.48
2022-09-15T20:13:57.964Z,1.42
2022-09-15T20:16:24.888Z,1.30
2022-09-15T20:18:53.238Z,1.75
2022-09-15T20:21:48.780Z,1.38
2022-09-15T20:24:16.887Z,1.48
2022-09-15T20:26:44.952Z,1.65
2022-09-15T20:29:11.759Z,1.50
2022-09-15T20:31:38.397Z,1.52
2022-09-15T20:34:05.014Z,1.80
2022-09-15T20:36:36.354Z,1.60
2022-09-15T20:39:07.355Z,1.60
2022-09-15T20:41:35.151Z,1.45
2022-09-15T20:44:03.178Z,1.77
2022-09-15T20:46:31.419Z,1.60
2022-09-15T20:48:59.613Z,2.20
2022-09-15T20:51:29.543Z,1.35
2022-09-15T20:53:59.171Z,1.60
2022-09-15T20:56:28.707Z,1.38
2022-09-15T20:58:57.554Z,1.48
2022-09-15T21:01:28.660Z,1.63
2022-09-15T21:03:58.631Z,1.60
2022-09-15T21:06:35.697Z,1.60
2022-09-15T21:09:06.502Z,1.60
2022-09-15T21:11:38.342Z,1.63
2022-09-15T21:14:05.308Z,1.60
2022-09-15T21:16:32.204Z,1.67
2022-09-15T21:19:00.057Z,1.23
2022-09-15T21:21:31.015Z,1.40
2022-09-15T21:24:01.112Z,1.30
2022-09-15T21:26:31.757Z,1.48
2022-09-15T21:28:58.723Z,1.55
2022-09-15T21:31:27.872Z,1.90
2022-09-15T21:33:56.551Z,1.98
2022-09-15T21:36:26.544Z,1.95
2022-09-15T21:38:55.830Z,1.90
2022-09-15T21:41:28.847Z,1.90
2022-09-15T21:43:55.842Z,2.33
2022-09-15T21:46:25.843Z,1.80
2022-09-15T21:48:56.201Z,1.90
2022-09-15T21:51:25.319Z,1.90
2022-09-15T21:53:56.725Z,1.98
2022-09-15T21:56:25.831Z,1.83
2022-09-15T21:58:52.469Z,2.15
2022-09-15T22:01:27.154Z,1.85
2022-09-15T22:03:59.999Z,2.05
2022-09-15T22:06:33.413Z,2.20
2022-09-15T22:09:09.811Z,2.10
2022-09-15T22:11:36.768Z,2.20
2022-09-15T22:14:06.083Z,1.95
2022-09-15T22:16:36.364Z,2.20
2022-09-15T22:19:07.316Z,1.90
2022-09-15T22:21:35.266Z,1.52
2022-09-15T22:24:06.072Z,2.05
2022-09-15T22:26:36.879Z,1.85
2022-09-15T22:29:04.378Z,2.13
2022-09-15T22:31:32.049Z,1.90
2022-09-15T22:34:00.081Z,2.13
2022-09-15T22:36:30.400Z,2.03
2022-09-15T22:38:59.886Z,1.70
2022-09-15T22:41:26.522Z,1.63
2022-09-15T22:43:53.127Z,2.00
2022-09-15T22:46:21.171Z,1.77
2022-09-15T22:48:49.431Z,1.63
2022-09-15T22:51:17.440Z,1.73
2022-09-15T22:53:45.294Z,2.03
2022-09-15T22:56:15.725Z,1.90
2022-09-15T22:58:43.893Z,1.67
2022-09-15T23:01:18.205Z,1.65
2022-09-15T23:03:53.691Z,1.70
2022-09-15T23:06:22.460Z,1.88
2022-09-15T23:08:58.181Z,1.85
2022-09-15T23:13:54.248Z,1.55
2022-09-15T23:16:22.976Z,1.75
2022-09-15T23:18:50.861Z,1.40
2022-09-15T23:21:19.550Z,1.50
2022-09-15T23:23:47.971Z,1.40
2022-09-15T23:26:19.210Z,1.70
2022-09-15T23:28:48.653Z,1.50
2022-09-15T23:31:20.170Z,1.50
2022-09-15T23:33:49.528Z,1.40
2022-09-15T23:36:19.935Z,1.25
2022-09-15T23:38:47.755Z,1.35
2022-09-15T23:41:24.186Z,1.30
2022-09-15T23:43:55.007Z,1.63
2022-09-15T23:46:21.690Z,1.58
2022-09-15T23:48:49.695Z,1.77
2022-09-15T23:51:17.532Z,1.42
2022-09-15T23:53:45.396Z,1.50
2022-09-15T23:56:12.008Z,1.30
2022-09-15T23:58:38.624Z,1.48
